Accueil
METAR-TAF:

METAR-TAF

Aéroports :

Aéroport de Valence

Valence, Espagne

latitude: 39-30N, longitude: 000-28W, altitude: 69 m

Observation

Le bulletin a été fait il y a 23 minutes, à 08:00 UTC
Vent 8 kt de ouest
Température 11°C
Humidité 62%
Pression 1015 hPa
Visibilité 10 km ou plus
Quelques nuages à une hauteur de 3000 ft

METAR: LEVC 140800Z 27008KT 9999 FEW030 11/04 Q1015 NOSIG

Heure: 09:23 (08:23 UTC)

Prévision

Le bulletin a été fait il y a 3 heures et 23 minutes, à 05:00 UTC
Prévision valable du 14 à 06 UTC au 15 à 06 UTC
Vent 8 kt de ouest/nord-ouest
Visibilité 10 km ou plus
Nuages épars à une hauteur de 5000 ft
Probabilité 30% :
Temporairement
du 14 à 06 UTC au 14 à 09 UTC
Vent 15 kt de ouest/nord-ouest avec des rafales jusqu'à 30 kt

TAF: LEVC 140500Z 1406/1506 30008KT 9999 SCT050 TX17/1412Z TN08/1406Z PROB30 TEMPO 1406/1409 30015G30KT

Observations et prévisions météorologiques de plus de 4000 aéroports (messages METAR et TAF).

Les stations disponibles sont représentées par des disques jaunes et rouges sur la carte.

Passer la souris dessus pour voir le nom de la station.

Cliquer dessus pour voir les observations et prévisions météorologiques.

Pour changer de carte: cliquez sur les boutons verts avec une croix noire pour zoomer, sur le bouton vert avec un tiret pour effectuer un zoom arrière, ou sur les flèches vertes pour les cartes adjacentes.


METAR-TAF: